Terminal Aerodrome Forecast
Issued by NWS

Home | Current Version | Previous Version | Text Only | Print | Product List | Glossary On
Versions: 1 2 3 4 5 6 7 8 9 10 11 12 13 14 15
000
FTUS45 KSLC 251745
TAFEVW
TAF
KEVW 251745Z 2518/2618 25013G20KT P6SM VCSH SCT030 BKN060
     FM252000 24015G25KT P6SM VCTS SCT030CB BKN060
     FM260100 29009KT P6SM SCT040 BKN070
     FM260400 VRB04KT P6SM SCT050 BKN090
     FM261600 15007KT P6SM VCSH SCT060 BKN120=

USA.gov is the U.S. government's official web portal to all federal, state and local government web resources and services.